Time;durP1;ratioP1;P1;durP2;ratioP2;P2;SDS_P1;SDS_P2;PMS_P1;PMS_P2;Temp;Humidity;BMP_temperature;BMP_pressure;BME280_temperature;BME280_humidity;BME280_pressure;Samples;Min_cycle;Max_cycle;Signal;HPM_P1;HPM_P2
2021/07/21 00:00:50;;;;;;;12.18;7.43;;;;;;;17.77;70.13;100232.25;5052778;28;20041;-80
2021/07/21 00:03:19;;;;;;;10.88;7.72;;;;;;;17.91;69.92;100237.25;5052596;28;20064;-79
2021/07/21 00:05:48;;;;;;;13.18;7.72;;;;;;;17.72;70.04;100225.41;5052574;28;20053;-80
2021/07/21 00:08:17;;;;;;;13.48;7.47;;;;;;;17.74;70.13;100222.56;5052507;28;20049;-80
2021/07/21 00:10:48;;;;;;;12.93;7.38;;;;;;;17.82;69.45;100229.97;5051632;28;20056;-79
2021/07/21 00:13:27;;;;;;;13.38;8.13;;;;;;;17.85;69.50;100232.41;5052357;28;20128;-77
2021/07/21 00:16:05;;;;;;;14.55;7.63;;;;;;;17.78;69.71;100242.06;5052501;28;20041;-82
2021/07/21 00:18:36;;;;;;;12.05;7.63;;;;;;;17.76;70.16;100241.31;5052721;28;20052;-78
2021/07/21 00:21:05;;;;;;;11.90;7.28;;;;;;;17.80;69.85;100242.75;5052323;28;20073;-78
2021/07/21 00:23:35;;;;;;;15.00;7.75;;;;;;;17.77;69.62;100237.66;5052691;28;20047;-79
2021/07/21 00:26:03;;;;;;;15.40;9.32;;;;;;;17.73;69.94;100248.72;5053048;28;20076;-77
2021/07/21 00:28:39;;;;;;;13.45;8.02;;;;;;;17.74;70.06;100250.41;5052517;28;20037;-79
2021/07/21 00:31:07;;;;;;;11.98;7.68;;;;;;;17.73;70.09;100254.09;5052457;28;20506;-79
2021/07/21 00:33:36;;;;;;;11.82;7.60;;;;;;;17.66;70.45;100252.94;5051914;28;20061;-78
2021/07/21 00:36:05;;;;;;;13.98;7.68;;;;;;;17.67;70.37;100257.34;5052043;28;20507;-79
2021/07/21 00:38:33;;;;;;;12.98;8.02;;;;;;;17.57;71.03;100253.75;5052549;28;20049;-79
2021/07/21 00:41:02;;;;;;;13.63;8.13;;;;;;;17.56;71.16;100261.97;5052049;28;20045;-81
2021/07/21 00:43:32;;;;;;;13.02;7.95;;;;;;;17.38;72.22;100259.06;5052439;28;20118;-81
2021/07/21 00:46:02;;;;;;;13.27;8.10;;;;;;;17.53;71.71;100256.84;5051983;28;20041;-78
2021/07/21 00:48:30;;;;;;;12.60;7.85;;;;;;;17.44;72.22;100258.50;5052560;28;20068;-77
2021/07/21 00:50:59;;;;;;;14.32;9.00;;;;;;;17.30;73.06;100262.44;5052192;28;20044;-86
2021/07/21 00:53:28;;;;;;;13.35;8.32;;;;;;;17.32;73.06;100260.47;5052195;28;20484;-79
2021/07/21 00:55:57;;;;;;;13.18;8.68;;;;;;;17.24;73.63;100260.28;5054672;28;20040;-77
2021/07/21 00:58:26;;;;;;;14.25;8.15;;;;;;;17.33;73.58;100258.63;5056253;28;20037;-77
2021/07/21 01:00:57;;;;;;;13.50;7.60;;;;;;;17.34;73.58;100254.94;5055870;28;20060;-76
2021/07/21 01:03:26;;;;;;;13.43;8.55;;;;;;;17.28;73.76;100256.34;5056303;28;20048;-76
2021/07/21 01:05:59;;;;;;;14.27;8.82;;;;;;;17.16;74.68;100250.16;5056039;28;20041;-79
2021/07/21 01:08:28;;;;;;;16.30;8.65;;;;;;;17.11;74.91;100260.50;5055830;28;20045;-80
2021/07/21 01:11:16;;;;;;;17.45;9.45;;;;;;;17.15;75.34;100259.22;5055753;28;20052;-79
2021/07/21 01:13:53;;;;;;;15.50;7.97;;;;;;;17.17;75.38;100268.03;5055966;28;20052;-79
2021/07/21 01:16:26;;;;;;;15.25;8.68;;;;;;;17.07;76.18;100267.13;5055366;28;20045;-79
2021/07/21 01:19:00;;;;;;;15.13;8.32;;;;;;;17.17;75.46;100270.72;5055780;28;20087;-79
2021/07/21 01:21:50;;;;;;;;;;;;;;;17.07;76.02;100259.03;5056171;28;20045;-81
2021/07/21 01:24:27;;;;;;;17.83;9.52;;;;;;;17.03;76.02;100260.31;5055281;28;20376;-80
2021/07/21 01:27:19;;;;;;;18.05;8.50;;;;;;;16.93;77.12;100272.88;5055496;28;20049;-80
2021/07/21 01:29:52;;;;;;;15.15;8.27;;;;;;;16.97;76.91;100277.00;5047954;28;20119;-81
2021/07/21 01:32:22;;;;;;;;;;;;;;;16.99;76.82;100268.81;5055770;28;20056;-80
2021/07/21 01:34:53;;;;;;;13.15;8.55;;;;;;;16.97;76.75;100260.84;5055446;28;20379;-81
2021/07/21 01:37:23;;;;;;;12.43;8.70;;;;;;;16.92;77.34;100262.25;5054953;28;20136;-81
2021/07/21 01:39:58;;;;;;;16.33;8.30;;;;;;;16.94;77.38;100274.59;5055389;28;20045;-83
2021/07/21 01:42:29;;;;;;;16.42;7.97;;;;;;;17.09;76.79;100264.34;5055539;28;20037;-84
2021/07/21 01:45:00;;;;;;;14.07;8.75;;;;;;;17.05;76.66;100262.88;5055319;28;20045;-84
2021/07/21 01:47:33;;;;;;;13.88;8.32;;;;;;;17.05;76.83;100270.97;5055754;28;20037;-84
2021/07/21 01:50:06;;;;;;;14.05;9.13;;;;;;;16.90;77.55;100270.47;5055280;28;20061;-82
2021/07/21 01:52:35;;;;;;;12.80;8.13;;;;;;;16.91;77.89;100269.47;5055029;28;20078;-81
2021/07/21 01:55:06;;;;;;;15.38;9.13;;;;;;;16.80;78.20;100250.69;5054769;28;20403;-81
2021/07/21 01:57:37;;;;;;;15.55;8.93;;;;;;;16.95;77.68;100257.44;5055528;28;20044;-82
2021/07/21 02:00:11;;;;;;;14.65;8.68;;;;;;;16.89;77.92;100268.75;5055306;28;20049;-81
2021/07/21 02:02:43;;;;;;;13.20;8.60;;;;;;;16.79;78.60;100268.69;5056045;28;20052;-81
2021/07/21 02:05:14;;;;;;;16.33;8.67;;;;;;;16.82;78.39;100268.41;5055160;28;20487;-82
2021/07/21 02:07:44;;;;;;;13.57;8.50;;;;;;;16.79;78.99;100262.41;5055288;28;20056;-82
2021/07/21 02:10:14;;;;;;;15.15;8.52;;;;;;;16.73;79.62;100268.34;5055046;28;20075;-83
2021/07/21 02:12:49;;;;;;;17.65;9.27;;;;;;;16.70;80.31;100274.00;5054908;28;20049;-82
2021/07/21 02:15:18;;;;;;;16.67;8.98;;;;;;;16.69;80.25;100273.13;5055007;28;20376;-75
2021/07/21 02:17:47;;;;;;;15.38;9.15;;;;;;;16.76;79.77;100278.84;5054876;28;20044;-76
2021/07/21 02:20:15;;;;;;;13.43;8.65;;;;;;;16.73;80.02;100279.13;5054376;28;20076;-76
2021/07/21 02:22:45;;;;;;;18.45;8.90;;;;;;;16.73;79.94;100279.13;5054439;28;20041;-76
2021/07/21 02:25:14;;;;;;;16.33;9.02;;;;;;;16.67;80.48;100279.59;5054066;28;20451;-77
2021/07/21 02:27:44;;;;;;;12.73;8.38;;;;;;;16.72;80.17;100277.41;5053741;28;20057;-76
2021/07/21 02:30:16;;;;;;;14.02;8.93;;;;;;;16.76;79.72;100277.00;5054462;28;20392;-77
2021/07/21 02:32:51;;;;;;;13.68;8.32;;;;;;;16.65;80.52;100276.19;5054264;28;20068;-77
2021/07/21 02:35:21;;;;;;;14.60;9.10;;;;;;;16.67;80.46;100271.53;5054155;28;20084;-77
2021/07/21 02:37:50;;;;;;;15.05;8.75;;;;;;;16.58;81.44;100271.31;5054099;28;20407;-76
2021/07/21 02:40:19;;;;;;;13.55;8.73;;;;;;;16.60;80.96;100273.91;5053999;28;20447;-77
2021/07/21 02:42:48;;;;;;;14.32;9.05;;;;;;;16.66;80.66;100272.50;5052586;28;20522;-77
2021/07/21 02:45:18;;;;;;;13.63;8.40;;;;;;;16.54;81.51;100275.25;5053753;28;20051;-77
2021/07/21 02:47:46;;;;;;;16.58;9.05;;;;;;;16.49;81.66;100271.25;5053990;28;20507;-77
2021/07/21 02:50:18;;;;;;;14.43;8.98;;;;;;;16.57;81.45;100279.53;5053494;28;20072;-77
2021/07/21 02:52:52;;;;;;;14.68;9.52;;;;;;;16.52;81.73;100281.78;5054079;28;20067;-78
2021/07/21 02:55:25;;;;;;;16.17;9.07;;;;;;;16.48;82.34;100291.94;5053804;28;20037;-78
2021/07/21 02:57:56;;;;;;;18.15;9.30;;;;;;;16.43;82.97;100290.63;5054071;28;20041;-77
2021/07/21 03:00:31;;;;;;;14.68;8.60;;;;;;;16.38;83.52;100291.00;5053739;28;20776;-77
2021/07/21 03:03:01;;;;;;;;;;;;;;;16.28;84.27;100292.75;5054305;28;20045;-77
2021/07/21 03:05:32;;;;;;;15.40;8.70;;;;;;;16.24;84.98;100288.63;5053565;28;19925;-77
2021/07/21 03:08:02;;;;;;;16.83;9.77;;;;;;;16.39;84.31;100297.22;5053912;28;20037;-79
2021/07/21 03:10:31;;;;;;;14.80;9.20;;;;;;;16.33;84.85;100295.91;5052208;28;20056;-79
2021/07/21 03:13:04;;;;;;;16.50;9.55;;;;;;;16.38;84.75;100301.75;5053365;28;20510;-79
2021/07/21 03:15:39;;;;;;;15.57;9.88;;;;;;;16.34;84.80;100300.31;5053910;28;20067;-82
2021/07/21 03:18:11;;;;;;;16.50;9.52;;;;;;;16.26;85.69;100303.66;5052891;28;20442;-86
2021/07/21 03:20:41;;;;;;;17.05;9.20;;;;;;;16.28;85.66;100303.50;5053966;28;20380;-82
2021/07/21 03:23:10;;;;;;;17.02;9.45;;;;;;;16.37;85.10;100305.44;5052999;28;20048;-80
2021/07/21 03:25:43;;;;;;;16.63;10.00;;;;;;;16.29;85.71;100308.75;5053218;28;20041;-78
2021/07/21 03:28:14;;;;;;;17.50;9.73;;;;;;;16.26;86.13;100309.03;5053194;28;20120;-78
2021/07/21 03:30:44;;;;;;;14.45;8.98;;;;;;;16.39;85.50;100314.22;5053494;28;20041;-77
2021/07/21 03:33:14;;;;;;;16.63;9.60;;;;;;;16.37;85.31;100312.66;5052768;28;20052;-81
2021/07/21 03:35:44;;;;;;;16.65;9.48;;;;;;;16.20;85.87;100308.66;5053262;28;20049;-80
2021/07/21 03:38:16;;;;;;;15.43;9.40;;;;;;;16.36;85.57;100309.13;5052983;28;20040;-80
2021/07/21 03:40:46;;;;;;;17.50;10.23;;;;;;;16.34;85.37;100316.47;5053301;28;20045;-80
2021/07/21 03:43:15;;;;;;;16.60;9.85;;;;;;;16.38;85.48;100322.44;5052750;28;20045;-80
2021/07/21 03:45:46;;;;;;;14.60;9.20;;;;;;;16.38;85.33;100311.69;5053228;28;20064;-80
2021/07/21 03:48:15;;;;;;;16.02;9.27;;;;;;;16.51;84.30;100323.16;5052768;28;20048;-80
2021/07/21 03:50:44;;;;;;;16.60;9.85;;;;;;;16.51;84.91;100326.69;5052896;28;20091;-78
2021/07/21 03:53:15;;;;;;;14.80;9.00;;;;;;;16.53;84.70;100322.03;5052484;28;20055;-78
2021/07/21 03:55:44;;;;;;;17.40;9.45;;;;;;;16.64;84.29;100331.03;5051836;28;20442;-77
2021/07/21 03:58:13;;;;;;;16.77;9.63;;;;;;;16.94;82.58;100331.16;5052376;28;20072;-79
2021/07/21 04:00:42;;;;;;;17.77;9.35;;;;;;;17.39;78.72;100330.88;5052597;28;20049;-78
2021/07/21 04:03:13;;;;;;;15.93;9.43;;;;;;;18.08;74.48;100325.63;5052465;28;20069;-85
2021/07/21 04:05:42;;;;;;;15.02;9.52;;;;;;;18.41;72.54;100321.69;5053008;28;20045;-78
2021/07/21 04:08:10;;;;;;;16.83;9.13;;;;;;;18.96;69.71;100313.91;5051433;28;20053;-79
2021/07/21 04:10:40;;;;;;;15.10;8.55;;;;;;;19.41;67.65;100322.19;5052771;28;20069;-78
2021/07/21 04:13:09;;;;;;;11.75;8.18;;;;;;;19.65;66.44;100319.00;5052477;28;20087;-77
2021/07/21 04:15:38;;;;;;;12.32;8.38;;;;;;;19.68;66.27;100325.97;5051318;28;20533;-76
2021/07/21 04:18:06;;;;;;;15.57;8.63;;;;;;;20.21;63.64;100323.41;5052359;28;20049;-75
2021/07/21 04:20:37;;;;;;;15.18;8.73;;;;;;;20.65;61.90;100330.81;5052482;28;20075;-76
2021/07/21 04:23:05;;;;;;;13.20;8.27;;;;;;;20.88;61.43;100342.91;5052804;28;20041;-76
2021/07/21 04:25:34;;;;;;;13.60;8.13;;;;;;;20.86;61.00;100344.91;5051897;28;20045;-77
2021/07/21 04:28:04;;;;;;;11.93;8.05;;;;;;;20.52;61.65;100337.47;5052395;28;20510;-73
2021/07/21 04:30:35;;;;;;;15.00;8.63;;;;;;;20.54;61.52;100351.72;5053856;28;20048;-74
2021/07/21 04:33:03;;;;;;;12.93;7.88;;;;;;;20.14;62.59;100345.81;5056630;28;20048;-73
2021/07/21 04:35:32;;;;;;;14.38;8.05;;;;;;;19.64;64.92;100349.78;5055856;28;20132;-73
2021/07/21 04:38:03;;;;;;;12.23;8.50;;;;;;;18.92;67.74;100349.47;5055977;28;20052;-74
2021/07/21 04:40:32;;;;;;;16.48;8.93;;;;;;;19.11;67.91;100354.88;5055702;28;20068;-77
2021/07/21 04:43:00;;;;;;;14.35;8.43;;;;;;;19.54;65.61;100351.63;5056393;28;20368;-77
2021/07/21 04:45:29;;;;;;;15.25;8.50;;;;;;;19.25;66.82;100357.09;5061981;28;20385;-75
2021/07/21 04:47:57;;;;;;;13.40;8.60;;;;;;;18.79;68.23;100366.81;5056098;28;20045;-79
2021/07/21 04:50:26;;;;;;;14.38;8.82;;;;;;;18.57;69.26;100361.66;5055900;28;20053;-78
2021/07/21 04:52:55;;;;;;;13.98;8.45;;;;;;;19.03;67.91;100362.84;5056070;28;20071;-78
2021/07/21 04:55:25;;;;;;;12.57;7.78;;;;;;;19.30;66.52;100370.19;5055442;28;20044;-78
2021/07/21 04:57:53;;;;;;;14.90;8.10;;;;;;;19.32;66.48;100382.59;5056055;28;20051;-77
2021/07/21 05:00:22;;;;;;;13.77;8.05;;;;;;;18.90;68.01;100383.88;5056014;28;20403;-77
2021/07/21 05:02:50;;;;;;;16.77;8.23;;;;;;;18.85;68.76;100390.59;5055998;28;20068;-78
2021/07/21 05:05:19;;;;;;;13.77;7.90;;;;;;;18.93;67.98;100389.03;5055565;28;20041;-79
2021/07/21 05:08:07;;;;;;;13.38;8.50;;;;;;;19.01;67.98;100397.25;5056125;28;20049;-78
2021/07/21 05:10:40;;;;;;;17.23;8.68;;;;;;;19.49;66.45;100391.78;5055507;28;20160;-78
2021/07/21 05:13:09;;;;;;;14.65;7.80;;;;;;;19.30;66.19;100400.81;5055812;28;20041;-78
2021/07/21 05:15:38;;;;;;;15.73;8.60;;;;;;;18.98;68.14;100409.22;5055900;28;20263;-76
2021/07/21 05:18:06;;;;;;;15.38;8.18;;;;;;;19.00;67.55;100407.22;5055333;28;20041;-76
2021/07/21 05:20:34;;;;;;;14.10;7.90;;;;;;;19.99;63.75;100397.78;5055214;28;20037;-76
2021/07/21 05:23:04;;;;;;;12.93;8.10;;;;;;;20.56;61.14;100403.06;5055639;28;20045;-74
2021/07/21 05:25:34;;;;;;;13.35;8.07;;;;;;;20.73;61.04;100401.34;5054931;28;20045;-74
2021/07/21 05:28:06;;;;;;;13.00;7.95;;;;;;;20.28;62.24;100411.19;5055599;28;20116;-74
2021/07/21 05:30:34;;;;;;;15.32;8.15;;;;;;;20.42;62.33;100407.09;5054086;28;20056;-78
2021/07/21 05:33:03;;;;;;;13.95;7.85;;;;;;;20.48;61.46;100411.94;5055460;28;20056;-78
2021/07/21 05:35:31;;;;;;;12.95;7.88;;;;;;;21.72;58.00;100421.06;5055326;28;20041;-76
2021/07/21 05:38:00;;;;;;;12.32;7.80;;;;;;;22.18;55.92;100419.78;5055267;28;20047;-75
2021/07/21 05:40:28;;;;;;;11.20;7.60;;;;;;;22.55;54.58;100418.56;5054775;28;20053;-76
2021/07/21 05:42:56;;;;;;;11.57;7.10;;;;;;;22.30;54.30;100430.38;5055180;28;20041;-75
2021/07/21 05:45:27;;;;;;;15.50;7.88;;;;;;;23.05;53.15;100428.53;5054677;28;20099;-76
2021/07/21 05:47:55;;;;;;;12.55;7.15;;;;;;;22.08;55.30;100439.94;5055550;28;20048;-75
2021/07/21 05:50:24;;;;;;;11.60;7.68;;;;;;;21.54;57.20;100447.38;5054717;28;20514;-76
2021/07/21 05:52:52;;;;;;;11.63;7.22;;;;;;;22.34;54.68;100442.63;5055149;28;20098;-75
2021/07/21 05:55:21;;;;;;;13.05;7.60;;;;;;;21.87;56.18;100445.72;5054717;28;20049;-76
2021/07/21 05:57:49;;;;;;;11.93;7.38;;;;;;;22.30;55.09;100449.41;5054933;28;20049;-76
2021/07/21 06:00:18;;;;;;;12.10;7.30;;;;;;;22.62;53.48;100454.09;5055154;28;20118;-76
2021/07/21 06:02:48;;;;;;;13.05;7.28;;;;;;;23.15;52.26;100456.44;5053806;28;20140;-75
2021/07/21 06:05:19;;;;;;;11.03;7.17;;;;;;;23.52;50.62;100453.22;5054936;28;20414;-75
2021/07/21 06:07:47;;;;;;;12.23;7.35;;;;;;;23.51;50.90;100451.53;5054649;28;20384;-76
2021/07/21 06:10:15;;;;;;;12.07;6.78;;;;;;;23.36;51.12;100448.66;5056328;28;20463;-76
2021/07/21 06:12:44;;;;;;;12.90;7.32;;;;;;;23.95;49.12;100443.00;5054558;28;20048;-74
2021/07/21 06:15:12;;;;;;;10.45;7.05;;;;;;;24.45;47.86;100445.41;5054893;28;20051;-73
2021/07/21 06:17:41;;;;;;;11.68;7.47;;;;;;;24.91;46.61;100458.28;5054506;28;20095;-71
2021/07/21 06:20:11;;;;;;;11.25;6.85;;;;;;;24.96;46.33;100447.66;5054738;28;20061;-73
2021/07/21 06:22:40;;;;;;;10.90;6.55;;;;;;;25.04;46.55;100448.50;5054393;28;20128;-74
2021/07/21 06:25:10;;;;;;;9.75;6.10;;;;;;;25.61;45.37;100452.66;5054430;28;20074;-77
2021/07/21 06:27:38;;;;;;;10.35;5.85;;;;;;;25.73;43.43;100455.81;5054629;28;20053;-77
2021/07/21 06:30:08;;;;;;;10.80;5.72;;;;;;;25.83;43.38;100450.91;5054381;28;20037;-83
2021/07/21 06:32:38;;;;;;;11.02;5.82;;;;;;;26.04;42.75;100452.91;5053250;28;20088;-80
2021/07/21 06:35:09;;;;;;;9.90;6.55;;;;;;;26.79;41.57;100450.78;5054796;28;20435;-79
2021/07/21 06:37:39;;;;;;;10.95;6.10;;;;;;;27.04;41.65;100454.06;5053943;28;20045;-75
2021/07/21 06:40:10;;;;;;;;;;;;;;;27.09;40.96;100457.03;5055050;28;20041;-74
2021/07/21 06:42:41;;;;;;;13.02;6.13;;;;;;;27.27;40.65;100456.59;5054268;28;19921;-74
2021/07/21 06:45:10;;;;;;;12.23;5.85;;;;;;;27.37;39.55;100456.28;5054171;28;20059;-74
2021/07/21 06:47:39;;;;;;;9.00;5.85;;;;;;;27.50;39.33;100461.00;5053980;28;20403;-74
2021/07/21 06:50:08;;;;;;;10.82;5.65;;;;;;;27.55;39.85;100458.53;5053798;28;20069;-74
2021/07/21 06:52:37;;;;;;;9.50;5.82;;;;;;;26.89;39.40;100469.63;5051626;28;20573;-76
2021/07/21 06:55:07;;;;;;;10.15;5.13;;;;;;;26.70;40.74;100471.09;5053930;28;20045;-80
2021/07/21 06:57:35;;;;;;;8.80;5.72;;;;;;;27.12;39.97;100471.38;5052730;28;20243;-72
2021/07/21 07:00:06;;;;;;;9.38;6.03;;;;;;;27.46;39.28;100470.69;5053980;28;20041;-78
2021/07/21 07:02:37;;;;;;;8.98;5.65;;;;;;;26.75;40.70;100478.75;5053456;28;20056;-78
2021/07/21 07:05:09;;;;;;;10.63;5.80;;;;;;;26.62;41.24;100473.94;5053679;28;20040;-75
2021/07/21 07:07:38;;;;;;;9.48;6.10;;;;;;;25.56;43.08;100479.66;5053544;28;20456;-77
2021/07/21 07:10:09;;;;;;;7.78;5.78;;;;;;;25.21;44.39;100483.88;5053357;28;20036;-77
2021/07/21 07:12:37;;;;;;;11.30;5.70;;;;;;;25.15;45.35;100479.13;5052673;28;20063;-76
2021/07/21 07:15:08;;;;;;;9.38;6.15;;;;;;;25.03;45.67;100471.34;5053197;28;20037;-76
2021/07/21 07:17:37;;;;;;;11.88;6.13;;;;;;;24.81;45.27;100477.63;5053345;28;20064;-75
2021/07/21 07:20:08;;;;;;;9.98;5.85;;;;;;;24.61;46.16;100481.78;5053363;28;20081;-76
2021/07/21 07:22:36;;;;;;;9.20;5.75;;;;;;;24.55;46.53;100475.16;5053200;28;20045;-76
2021/07/21 07:25:06;;;;;;;11.38;6.03;;;;;;;24.17;47.37;100485.00;5053154;28;20037;-76
2021/07/21 07:27:40;;;;;;;9.75;5.60;;;;;;;24.02;47.92;100482.13;5053000;28;20139;-77
2021/07/21 07:30:10;;;;;;;12.70;6.07;;;;;;;24.25;47.97;100482.25;5053504;28;20049;-77
2021/07/21 07:32:39;;;;;;;8.18;5.75;;;;;;;23.82;48.80;100486.25;5053138;28;20041;-77
2021/07/21 07:35:09;;;;;;;11.65;6.40;;;;;;;23.81;48.98;100485.41;5053184;28;20480;-78
2021/07/21 07:37:37;;;;;;;10.75;6.53;;;;;;;23.87;49.33;100487.44;5052809;28;20526;-77
2021/07/21 07:40:07;;;;;;;10.43;6.30;;;;;;;23.52;48.79;100485.03;5052986;28;20045;-78
2021/07/21 07:42:35;;;;;;;11.25;5.95;;;;;;;23.60;50.13;100493.25;5052792;28;20049;-77
2021/07/21 07:45:09;;;;;;;9.55;6.25;;;;;;;23.63;49.84;100495.63;5052863;28;20045;-77
2021/07/21 07:47:38;;;;;;;11.05;6.88;;;;;;;23.76;49.24;100495.13;5052763;28;20098;-78
2021/07/21 07:50:09;;;;;;;9.43;5.85;;;;;;;23.94;49.62;100493.06;5052930;28;20399;-77
2021/07/21 07:52:38;;;;;;;14.05;6.30;;;;;;;23.90;48.38;100495.25;5052603;28;20048;-78
2021/07/21 07:55:08;;;;;;;11.63;6.55;;;;;;;23.47;49.60;100493.72;5053226;28;20052;-78
2021/07/21 07:57:37;;;;;;;11.30;6.43;;;;;;;23.53;50.33;100489.47;5052813;28;20051;-78
2021/07/21 08:00:10;;;;;;;10.75;6.03;;;;;;;23.53;49.78;100497.63;5053175;28;20095;-77
2021/07/21 08:02:39;;;;;;;9.43;6.20;;;;;;;23.50;49.48;100485.22;5052627;28;20045;-77
2021/07/21 08:05:11;;;;;;;9.73;6.38;;;;;;;23.67;50.83;100489.69;5052687;28;20412;-78
2021/07/21 08:07:40;;;;;;;10.15;5.82;;;;;;;23.64;50.36;100489.16;5052600;28;20110;-78
2021/07/21 08:10:13;;;;;;;11.48;6.68;;;;;;;23.69;48.61;100497.66;5052729;28;20044;-77
2021/07/21 08:12:43;;;;;;;9.85;6.40;;;;;;;23.63;49.41;100490.16;5052986;28;20067;-77
2021/07/21 08:15:32;;;;;;;8.68;6.38;;;;;;;23.74;50.51;100484.41;5052549;28;20049;-79
2021/07/21 08:18:04;;;;;;;10.13;6.07;;;;;;;23.73;48.93;100477.22;5052616;28;20094;-77
2021/07/21 08:20:33;;;;;;;11.32;6.57;;;;;;;23.48;48.42;100489.13;5052507;28;20045;-79
2021/07/21 08:23:01;;;;;;;10.60;5.40;;;;;;;23.51;47.38;100477.91;5052819;28;20048;-78
2021/07/21 08:25:31;;;;;;;10.45;6.22;;;;;;;23.68;48.77;100485.06;5052671;28;20071;-78
2021/07/21 08:27:59;;;;;;;10.40;6.38;;;;;;;23.53;48.43;100481.28;5052580;28;20041;-78
2021/07/21 08:30:28;;;;;;;11.48;6.80;;;;;;;23.66;49.41;100487.97;5052812;28;20048;-76
2021/07/21 08:33:00;;;;;;;14.65;6.50;;;;;;;23.89;48.98;100488.09;5052737;28;20385;-76
2021/07/21 08:35:31;;;;;;;12.73;7.05;;;;;;;23.90;50.21;100487.09;5052616;28;20045;-76
2021/07/21 08:38:00;;;;;;;10.65;6.65;;;;;;;23.95;47.85;100492.88;5052477;28;20041;-77
2021/07/21 08:40:31;;;;;;;10.90;5.93;;;;;;;24.13;48.39;100491.81;5052589;28;20106;-77
2021/07/21 08:43:19;;;;;;;12.25;6.93;;;;;;;24.35;49.87;100499.28;5052715;28;20041;-76
2021/07/21 08:45:52;;;;;;;10.45;6.00;;;;;;;24.41;48.67;100492.25;5052192;28;20040;-77
2021/07/21 08:48:22;;;;;;;11.77;6.35;;;;;;;24.31;48.63;100503.38;5052731;28;20464;-76
2021/07/21 08:50:51;;;;;;;10.30;6.28;;;;;;;23.90;49.06;100511.59;5052169;28;20120;-77
2021/07/21 08:53:20;;;;;;;9.43;6.05;;;;;;;24.17;49.37;100501.34;5052282;28;20398;-78
2021/07/21 08:55:49;;;;;;;8.90;5.80;;;;;;;24.19;48.90;100507.47;5052323;28;20041;-77
2021/07/21 08:58:20;;;;;;;10.07;6.20;;;;;;;24.25;48.14;100504.91;5052607;28;20140;-77
2021/07/21 09:00:52;;;;;;;12.18;6.35;;;;;;;24.42;49.26;100510.34;5052324;28;20088;-77
2021/07/21 09:03:23;;;;;;;12.53;6.03;;;;;;;24.47;48.89;100508.78;5052237;28;20127;-76
2021/07/21 09:05:53;;;;;;;10.80;6.75;;;;;;;24.57;47.98;100508.56;5052019;28;20095;-76
2021/07/21 09:08:22;;;;;;;13.95;6.30;;;;;;;24.60;48.13;100507.34;5052283;28;20542;-76
2021/07/21 09:10:50;;;;;;;10.52;6.38;;;;;;;24.55;46.17;100511.47;5051993;28;20511;-76
2021/07/21 09:13:19;;;;;;;9.73;5.97;;;;;;;24.33;46.46;100512.25;5052350;28;20037;-77
2021/07/21 09:15:48;;;;;;;11.27;6.15;;;;;;;24.29;47.28;100510.84;5052218;28;20087;-76
2021/07/21 09:18:19;;;;;;;10.90;6.55;;;;;;;24.20;46.84;100512.72;5054581;28;20059;-76
2021/07/21 09:21:07;;;;;;;8.88;6.00;;;;;;;24.35;45.52;100514.78;5055818;28;20052;-77
2021/07/21 09:23:36;;;;;;;10.68;6.20;;;;;;;24.41;46.44;100514.91;5056039;28;20052;-76
2021/07/21 09:26:05;;;;;;;9.32;6.30;;;;;;;24.49;46.14;100506.72;5055470;28;20048;-77
2021/07/21 09:28:37;;;;;;;9.68;5.95;;;;;;;24.70;44.98;100502.53;5055698;28;20479;-77
2021/07/21 09:31:06;;;;;;;9.23;5.53;;;;;;;25.11;45.23;100506.78;5055594;28;20041;-76
2021/07/21 09:33:35;;;;;;;10.70;5.95;;;;;;;24.85;43.78;100503.50;5055505;28;20044;-76
2021/07/21 09:36:05;;;;;;;10.20;5.60;;;;;;;24.88;43.14;100503.13;5055816;28;20051;-76
2021/07/21 09:38:33;;;;;;;9.57;5.63;;;;;;;24.87;42.82;100495.97;5055382;28;20052;-76
2021/07/21 09:41:05;;;;;;;8.57;5.38;;;;;;;25.17;43.05;100498.88;5055320;28;20098;-76
2021/07/21 09:43:35;;;;;;;8.98;5.32;;;;;;;25.31;41.44;100500.84;5055379;28;20110;-76
2021/07/21 09:46:05;;;;;;;9.15;5.95;;;;;;;25.46;42.66;100498.16;5055853;28;20049;-76
2021/07/21 09:48:38;;;;;;;11.10;6.10;;;;;;;25.53;42.33;100496.41;5055347;28;20128;-76
2021/07/21 09:51:08;;;;;;;10.18;5.38;;;;;;;25.48;42.75;100502.44;5055102;28;20041;-78
2021/07/21 09:53:40;;;;;;;10.10;5.88;;;;;;;25.26;43.08;100504.13;5055194;28;20037;-76
2021/07/21 09:56:09;;;;;;;9.43;5.50;;;;;;;25.27;42.92;100496.78;5055356;28;20132;-76
2021/07/21 09:58:37;;;;;;;10.90;6.07;;;;;;;25.31;43.06;100500.84;5055178;28;20048;-76
2021/07/21 10:01:07;;;;;;;9.05;5.63;;;;;;;25.22;42.71;100496.47;5054969;28;20095;-76
2021/07/21 10:03:39;;;;;;;9.90;5.68;;;;;;;25.42;41.92;100492.22;5054921;28;20055;-77
2021/07/21 10:06:10;;;;;;;9.85;5.75;;;;;;;25.34;42.02;100501.34;5055237;28;20033;-76
2021/07/21 10:08:41;;;;;;;10.00;5.88;;;;;;;25.44;41.27;100506.53;5055180;28;20438;-76
2021/07/21 10:11:22;;;;;;;11.13;5.55;;;;;;;25.48;41.65;100502.44;5055380;28;20183;-77
2021/07/21 10:13:52;;;;;;;9.30;5.85;;;;;;;25.54;41.67;100501.69;5054695;28;20499;-77
2021/07/21 10:16:32;;;;;;;10.98;5.75;;;;;;;25.72;42.10;100509.59;5054512;28;20044;-77
2021/07/21 10:19:06;;;;;;;9.02;5.68;;;;;;;25.89;42.66;100511.16;5054587;28;20122;-77
2021/07/21 10:21:42;;;;;;;9.10;5.63;;;;;;;26.09;42.44;100511.47;5053370;28;20056;-77
2021/07/21 10:24:12;;;;;;;8.27;5.38;;;;;;;26.02;41.39;100509.66;5054756;28;20389;-76
2021/07/21 10:26:41;;;;;;;10.15;5.50;;;;;;;25.86;41.49;100507.91;5054112;28;20403;-80
2021/07/21 10:29:11;;;;;;;10.52;5.45;;;;;;;25.62;42.36;100503.50;5054630;28;20041;-76
2021/07/21 10:31:40;;;;;;;8.52;5.60;;;;;;;25.47;43.00;100505.31;5054720;28;20043;-76
2021/07/21 10:34:11;;;;;;;11.43;6.30;;;;;;;25.41;42.90;100501.47;5054535;28;20049;-77
2021/07/21 10:36:41;;;;;;;9.65;5.55;;;;;;;25.38;43.22;100510.88;5054322;28;20033;-76
2021/07/21 10:39:12;;;;;;;9.00;5.40;;;;;;;25.49;42.02;100506.00;5054176;28;20044;-77
2021/07/21 10:41:41;;;;;;;8.52;5.70;;;;;;;25.43;42.02;100502.13;5054146;28;20041;-77
2021/07/21 10:44:11;;;;;;;10.18;5.60;;;;;;;25.63;42.35;100506.03;5053635;28;20048;-77
2021/07/21 10:46:42;;;;;;;10.27;6.00;;;;;;;25.79;40.65;100507.84;5054199;28;20041;-77
2021/07/21 10:49:23;;;;;;;7.85;5.50;;;;;;;25.83;40.29;100511.88;5054305;28;20048;-77
2021/07/21 10:55:27;;;;;;;10.32;5.78;;;;;;;26.20;40.56;100502.78;5054075;28;20041;-77
2021/07/21 11:01:25;;;;;;;10.25;6.07;;;;;;;26.23;41.15;100505.16;5053821;28;20084;-77
2021/07/21 11:04:02;;;;;;;9.23;5.55;;;;;;;26.31;41.47;100500.63;5053574;28;20115;-77
2021/07/21 11:06:54;;;;;;;9.10;5.50;;;;;;;26.52;40.08;100498.00;5053481;28;20045;-77
2021/07/21 11:09:26;;;;;;;7.20;5.00;;;;;;;26.53;39.61;100496.97;5053657;28;20037;-76
2021/07/21 11:11:57;;;;;;;7.85;5.53;;;;;;;26.45;39.72;100497.09;5053488;28;20047;-76
2021/07/21 11:14:32;;;;;;;9.90;5.30;;;;;;;26.61;40.46;100494.13;5053595;28;20124;-77
2021/07/21 11:17:12;;;;;;;11.27;5.68;;;;;;;26.70;39.28;100493.00;5053527;28;20446;-77
2021/07/21 11:19:45;;;;;;;10.43;5.55;;;;;;;26.51;38.08;100490.84;5053668;28;20111;-76
2021/07/21 11:22:27;;;;;;;9.40;5.55;;;;;;;26.65;39.04;100495.47;5053477;28;20037;-77
2021/07/21 11:25:18;;;;;;;10.15;5.85;;;;;;;26.76;38.83;100485.91;5053301;28;20045;-77
2021/07/21 11:27:52;;;;;;;9.55;5.47;;;;;;;27.05;38.77;100491.34;5049233;28;20114;-78
2021/07/21 11:30:44;;;;;;;9.80;5.25;;;;;;;27.04;38.68;100486.06;5053565;28;20455;-76
2021/07/21 11:33:46;;;;;;;7.55;4.97;;;;;;;27.09;38.16;100472.63;5053348;28;20148;-77
2021/07/21 11:36:54;;;;;;;7.50;4.97;;;;;;;27.20;37.63;100477.59;5053540;28;20044;-76
2021/07/21 11:39:42;;;;;;;11.07;6.00;;;;;;;27.27;37.79;100473.03;5053046;28;20063;-77
2021/07/21 11:42:33;;;;;;;8.05;5.22;;;;;;;27.12;37.65;100465.91;5053059;28;20051;-76
2021/07/21 11:45:11;;;;;;;8.05;4.85;;;;;;;27.07;37.54;100475.56;5052955;28;20369;-76